createdAt,value
2023-01-03T00:03:54.135Z,0.0
2023-01-03T00:09:00.425Z,0.0
2023-01-03T00:14:06.779Z,0.0
2023-01-03T00:19:50.238Z,0.0
2023-01-03T00:24:57.661Z,0.0
2023-01-03T00:30:04.023Z,0.0
2023-01-03T00:35:10.381Z,0.0
2023-01-03T00:40:16.810Z,0.0
2023-01-03T00:45:57.295Z,0.0
2023-01-03T00:50:54.575Z,0.0
2023-01-03T00:56:31.151Z,0.0
2023-01-03T01:01:17.660Z,0.0
2023-01-03T01:06:13.836Z,0.0
2023-01-03T01:12:14.415Z,0.0
2023-01-03T01:17:33.721Z,0.0
2023-01-03T01:22:41.110Z,0.0
2023-01-03T01:28:12.142Z,0.0
2023-01-03T01:33:14.498Z,0.0
2023-01-03T01:37:50.969Z,0.0
2023-01-03T01:43:07.507Z,0.0
2023-01-03T01:48:15.577Z,0.0
2023-01-03T01:53:21.835Z,0.0
2023-01-03T01:58:28.223Z,0.0
2023-01-03T02:03:58.676Z,0.0
2023-01-03T02:08:40.993Z,0.0
2023-01-03T02:14:11.445Z,0.0
2023-01-03T02:18:53.847Z,0.0
2023-01-03T02:24:00.354Z,0.0
2023-01-03T02:28:56.693Z,0.0
2023-01-03T02:34:13.107Z,0.0
2023-01-03T02:39:23.656Z,0.0
2023-01-03T02:49:32.096Z,0.0
2023-01-03T02:54:39.521Z,0.0
2023-01-03T02:59:45.924Z,0.0
2023-01-03T03:04:52.313Z,0.0
2023-01-03T03:09:58.757Z,0.0
2023-01-03T03:15:05.110Z,0.0
2023-01-03T03:20:35.583Z,0.0
2023-01-03T03:25:17.936Z,0.0
2023-01-03T03:30:48.356Z,0.0
2023-01-03T03:35:20.697Z,0.0
2023-01-03T03:40:37.180Z,0.0
2023-01-03T03:45:33.585Z,0.0
2023-01-03T03:50:49.999Z,0.0
2023-01-03T03:55:56.404Z,0.0
2023-01-03T04:01:02.764Z,0.0
2023-01-03T04:06:09.121Z,0.0
2023-01-03T04:11:15.531Z,0.0
2023-01-03T04:16:22.082Z,0.0
2023-01-03T04:21:28.396Z,0.0
2023-01-03T04:26:34.806Z,0.0
2023-01-03T04:31:41.292Z,0.0
2023-01-03T04:36:47.568Z,0.0
2023-01-03T04:41:53.965Z,0.0
2023-01-03T04:47:45.388Z,0.0
2023-01-03T04:52:52.777Z,0.0
2023-01-03T04:57:59.173Z,0.0
2023-01-03T05:03:05.532Z,0.0
2023-01-03T05:08:11.911Z,0.0
2023-01-03T05:13:18.412Z,0.0
2023-01-03T05:18:23.686Z,0.0
2023-01-03T05:23:55.100Z,0.0
2023-01-03T05:29:14.540Z,0.0
2023-01-03T05:34:21.895Z,0.0
2023-01-03T05:39:18.270Z,0.0
2023-01-03T05:44:34.713Z,0.0
2023-01-03T05:49:41.167Z,0.0
2023-01-03T05:54:47.567Z,0.0
2023-01-03T05:59:53.971Z,0.0
2023-01-03T06:06:49.153Z,0.0
2023-01-03T06:11:56.681Z,0.0
2023-01-03T06:17:03.168Z,0.0
2023-01-03T06:22:11.134Z,0.0
2023-01-03T06:27:15.837Z,0.0
2023-01-03T06:32:22.229Z,0.0
2023-01-03T06:37:32.584Z,0.0
2023-01-03T06:42:34.951Z,0.0
2023-01-03T06:47:41.411Z,0.0
2023-01-03T06:52:47.728Z,0.0
2023-01-03T06:57:54.123Z,0.0
2023-01-03T07:03:20.667Z,0.0
2023-01-03T07:08:06.991Z,0.0
2023-01-03T07:13:13.485Z,0.0
2023-01-03T07:18:19.850Z,0.0
2023-01-03T07:23:26.266Z,0.0
2023-01-03T07:28:32.629Z,0.0
2023-01-03T07:33:39.033Z,0.0
2023-01-03T07:38:45.430Z,5.0
2023-01-03T07:43:51.769Z,5.0
2023-01-03T07:48:58.142Z,10.0
2023-01-03T07:54:04.551Z,15.0
2023-01-03T07:59:09.898Z,25.0
2023-01-03T08:04:17.321Z,40.0
2023-01-03T08:09:23.669Z,45.0
2023-01-03T08:14:50.073Z,50.0
2023-01-03T08:19:41.719Z,60.0
2023-01-03T08:24:42.816Z,65.0
2023-01-03T08:29:49.169Z,75.0
2023-01-03T08:34:55.562Z,85.0
2023-01-03T08:40:01.969Z,95.0
2023-01-03T08:45:08.322Z,110.0
2023-01-03T08:50:14.758Z,110.0
2023-01-03T08:55:11.168Z,120.0
2023-01-03T09:00:27.509Z,130.0
2023-01-03T09:05:53.908Z,165.0
2023-01-03T09:11:04.467Z,150.0
2023-01-03T09:15:46.817Z,150.0
2023-01-03T09:21:13.180Z,185.0
2023-01-03T09:26:23.583Z,155.0
2023-01-03T09:31:05.959Z,170.0
2023-01-03T09:36:12.264Z,160.0
2023-01-03T09:41:18.632Z,105.0
2023-01-03T09:46:25.172Z,80.0
2023-01-03T09:51:31.522Z,65.0
2023-01-03T09:56:37.821Z,60.0
2023-01-03T10:01:44.394Z,90.0
2023-01-03T10:06:49.681Z,120.0
2023-01-03T10:11:57.090Z,165.0
2023-01-03T10:17:03.699Z,115.0
2023-01-03T10:22:09.943Z,95.0
2023-01-03T10:27:36.357Z,75.0
2023-01-03T10:32:26.006Z,60.0
2023-01-03T10:37:32.348Z,95.0
2023-01-03T10:42:42.710Z,100.0
2023-01-03T10:47:45.116Z,130.0
2023-01-03T10:57:57.819Z,85.0
2023-01-03T11:03:04.463Z,60.0
2023-01-03T11:09:24.319Z,65.0
2023-01-03T11:13:18.561Z,65.0
2023-01-03T11:18:28.542Z,65.0
2023-01-03T11:23:33.873Z,85.0
2023-01-03T11:28:41.245Z,65.0
2023-01-03T11:33:47.633Z,55.0
2023-01-03T11:38:54.011Z,55.0
2023-01-03T11:44:00.496Z,35.0
2023-01-03T11:49:40.959Z,30.0
2023-01-03T11:54:53.140Z,25.0
2023-01-03T11:59:54.832Z,25.0
2023-01-03T12:05:01.234Z,25.0
2023-01-03T12:10:07.612Z,20.0
2023-01-03T12:15:13.971Z,20.0
2023-01-03T12:20:20.378Z,20.0
2023-01-03T12:25:26.785Z,30.0
2023-01-03T12:30:23.213Z,40.0
2023-01-03T12:35:39.669Z,35.0
2023-01-03T12:40:46.021Z,30.0
2023-01-03T12:45:42.366Z,35.0
2023-01-03T12:50:58.826Z,30.0
2023-01-03T12:56:04.198Z,40.0
2023-01-03T13:01:11.950Z,55.0
2023-01-03T13:06:18.163Z,45.0
2023-01-03T13:11:24.516Z,70.0
2023-01-03T13:16:21.344Z,60.0
2023-01-03T13:21:36.705Z,55.0
2023-01-03T13:26:48.199Z,70.0
2023-01-03T13:31:50.505Z,70.0
2023-01-03T13:36:56.982Z,85.0
2023-01-03T13:42:03.457Z,70.0
2023-01-03T13:47:29.880Z,50.0
2023-01-03T13:52:16.223Z,45.0
2023-01-03T13:57:46.678Z,85.0
2023-01-03T14:02:29.183Z,115.0
2023-01-03T14:07:35.476Z,50.0
2023-01-03T14:12:42.882Z,25.0
2023-01-03T14:17:49.376Z,30.0
2023-01-03T14:22:55.826Z,30.0
2023-01-03T14:27:52.152Z,25.0
2023-01-03T14:33:08.652Z,15.0
2023-01-03T14:38:35.099Z,20.0
2023-01-03T14:43:21.853Z,20.0
2023-01-03T14:48:27.791Z,25.0
2023-01-03T14:53:34.177Z,25.0
2023-01-03T14:58:40.585Z,15.0
2023-01-03T15:03:37.054Z,5.0
2023-01-03T15:09:00.103Z,5.0
2023-01-03T15:14:09.622Z,5.0
2023-01-03T15:19:17.539Z,5.0
2023-01-03T15:24:23.926Z,0.0
2023-01-03T15:29:34.359Z,0.0
2023-01-03T15:34:26.682Z,0.0
2023-01-03T15:39:43.058Z,0.0
2023-01-03T15:45:15.066Z,0.0
2023-01-03T15:49:57.434Z,0.0
2023-01-03T15:55:03.815Z,0.0
2023-01-03T16:00:10.193Z,0.0
2023-01-03T16:06:18.923Z,0.0
2023-01-03T16:10:57.149Z,0.0
2023-01-03T16:16:04.662Z,0.0
2023-01-03T16:21:10.904Z,0.0
2023-01-03T16:26:17.480Z,0.0
2023-01-03T16:31:23.873Z,0.0
2023-01-03T16:36:30.245Z,0.0
2023-01-03T16:41:36.698Z,0.0
2023-01-03T16:46:46.215Z,0.0
2023-01-03T16:51:57.369Z,0.0
2023-01-03T16:57:32.971Z,0.0
2023-01-03T17:02:40.509Z,0.0
2023-01-03T17:07:50.729Z,0.0
2023-01-03T17:12:43.084Z,0.0
2023-01-03T17:17:49.474Z,0.0
2023-01-03T17:23:06.000Z,0.0
2023-01-03T17:28:02.401Z,0.0
2023-01-03T17:33:18.777Z,0.0
2023-01-03T17:38:26.687Z,0.0
2023-01-03T17:43:31.575Z,0.0
2023-01-03T17:48:37.934Z,0.0
2023-01-03T17:53:44.319Z,0.0
2023-01-03T18:03:47.131Z,0.0
2023-01-03T18:09:37.644Z,0.0
2023-01-03T18:16:19.333Z,0.0
2023-01-03T18:21:06.653Z,0.0
2023-01-03T18:26:17.065Z,0.0
2023-01-03T18:31:19.577Z,0.0
2023-01-03T18:36:25.858Z,0.0
2023-01-03T18:41:22.196Z,0.0
2023-01-03T18:46:40.426Z,0.0
2023-01-03T18:51:46.935Z,0.0
2023-01-03T18:56:53.300Z,0.0
2023-01-03T19:01:59.850Z,0.0
2023-01-03T19:07:06.086Z,0.0
2023-01-03T19:12:12.444Z,0.0
2023-01-03T19:17:18.962Z,0.0
2023-01-03T19:22:25.410Z,0.0
2023-01-03T19:27:35.311Z,0.0
2023-01-03T19:33:25.853Z,0.0
2023-01-03T19:37:48.179Z,0.0
2023-01-03T19:42:54.585Z,0.0
2023-01-03T19:48:04.496Z,0.0
2023-01-03T19:53:11.088Z,0.0
2023-01-03T19:58:17.440Z,0.0
2023-01-03T20:03:24.068Z,0.0
2023-01-03T20:08:51.830Z,0.0
2023-01-03T20:13:38.150Z,0.0
2023-01-03T20:18:34.737Z,0.0
2023-01-03T20:23:51.237Z,0.0
2023-01-03T20:28:57.716Z,0.0
2023-01-03T20:34:03.960Z,0.0
2023-01-03T20:39:44.416Z,0.0
2023-01-03T20:44:51.833Z,0.0
2023-01-03T20:49:58.197Z,0.0
2023-01-03T20:55:04.586Z,0.0
2023-01-03T21:00:31.427Z,0.0
2023-01-03T21:05:17.684Z,0.0
2023-01-03T21:11:36.196Z,0.0
2023-01-03T21:15:30.454Z,0.0
2023-01-03T21:20:36.860Z,0.0
2023-01-03T21:25:33.228Z,0.0
2023-01-03T21:30:49.586Z,0.0
2023-01-03T21:35:56.038Z,0.0
2023-01-03T21:41:01.346Z,0.0
2023-01-03T21:46:08.837Z,0.0
2023-01-03T21:51:20.730Z,0.0
2023-01-03T21:56:11.610Z,0.0
2023-01-03T22:01:28.214Z,0.0
2023-01-03T22:06:34.423Z,0.0
2023-01-03T22:11:40.854Z,0.0
2023-01-03T22:16:47.351Z,0.0
2023-01-03T22:22:13.713Z,0.0
2023-01-03T22:27:28.075Z,0.0
2023-01-03T22:32:06.556Z,0.0
2023-01-03T22:37:02.790Z,0.0
2023-01-03T22:42:19.904Z,0.0
2023-01-03T22:47:25.693Z,0.0
2023-01-03T22:52:32.087Z,0.0
2023-01-03T22:57:38.483Z,0.0
2023-01-03T23:02:45.053Z,0.0
2023-01-03T23:07:52.847Z,0.0
2023-01-03T23:12:59.403Z,0.0
2023-01-03T23:18:05.773Z,0.0
2023-01-03T23:23:12.299Z,0.0
2023-01-03T23:28:46.336Z,0.0
2023-01-03T23:33:28.669Z,0.0
2023-01-03T23:38:35.036Z,0.0
2023-01-03T23:43:41.424Z,0.0
2023-01-03T23:49:21.905Z,0.0
2023-01-03T23:54:29.265Z,0.0
2023-01-03T23:59:36.739Z,0.0
